Time;durP1;ratioP1;P1;durP2;ratioP2;P2;SDS_P1;SDS_P2;PMS_P1;PMS_P2;Temp;Humidity;BMP_temperature;BMP_pressure;BME280_temperature;BME280_humidity;BME280_pressure;Samples;Min_cycle;Max_cycle;Signal;HPM_P1;HPM_P2
2022/02/24 00:01:30;;;;;;;12.98;4.70;;;;;;;6.85;75.51;100085.00;5074326;28;19962;-64
2022/02/24 00:04:14;;;;;;;11.00;4.57;;;;;;;6.85;74.99;100085.00;5074774;28;20039;-65
2022/02/24 00:06:59;;;;;;;12.95;4.20;;;;;;;6.85;75.17;100088.44;5073537;28;20433;-65
2022/02/24 00:09:44;;;;;;;12.57;4.93;;;;;;;6.86;75.26;100087.63;5073397;28;20055;-65
2022/02/24 00:12:28;;;;;;;14.15;4.97;;;;;;;6.86;75.51;100086.75;5074593;28;20161;-65
2022/02/24 00:15:14;;;;;;;12.93;4.57;;;;;;;6.88;75.38;100089.38;5074348;28;20051;-65
2022/02/24 00:17:58;;;;;;;12.45;4.88;;;;;;;6.88;75.22;100081.66;5074217;28;20051;-65
2022/02/24 00:20:42;;;;;;;9.13;4.80;;;;;;;6.87;75.20;100073.06;5073115;28;20098;-65
2022/02/24 00:23:27;;;;;;;14.25;3.95;;;;;;;6.88;75.30;100058.47;5073570;28;20047;-65
2022/02/24 00:26:11;;;;;;;12.18;5.15;;;;;;;6.87;75.47;100060.19;5073680;28;20121;-64
2022/02/24 00:28:55;;;;;;;8.95;4.40;;;;;;;6.88;75.22;100056.78;5074179;28;20113;-64
2022/02/24 00:31:42;;;;;;;12.93;4.95;;;;;;;6.88;75.39;100056.78;5074147;28;20522;-64
2022/02/24 00:34:26;;;;;;;7.93;4.05;;;;;;;6.88;75.11;100049.03;5073046;28;20082;-64
2022/02/24 00:37:14;;;;;;;13.27;3.97;;;;;;;6.88;75.68;100048.16;5073486;28;20091;-65
2022/02/24 00:39:59;;;;;;;9.30;4.28;;;;;;;6.86;75.10;100048.97;5074163;28;20047;-65
2022/02/24 00:42:43;;;;;;;8.10;3.50;;;;;;;6.87;75.02;100042.16;5073640;28;20051;-65
2022/02/24 00:45:27;;;;;;;13.05;3.60;;;;;;;6.87;75.34;100044.72;5073815;28;20063;-65
2022/02/24 00:48:11;;;;;;;8.98;4.78;;;;;;;6.86;75.32;100038.69;5073516;28;20098;-65
2022/02/24 00:50:58;;;;;;;7.40;3.55;;;;;;;6.86;75.27;100041.25;5073721;28;20408;-65
2022/02/24 00:53:47;;;;;;;11.68;4.53;;;;;;;6.85;75.52;100036.94;5073867;28;20593;-64
2022/02/24 00:56:31;;;;;;;9.98;4.30;;;;;;;6.86;75.59;100030.09;5072612;28;20419;-65
2022/02/24 00:59:15;;;;;;;;;;;;;;;6.85;75.44;100023.19;5072848;28;20044;-64
2022/02/24 01:01:59;;;;;;;11.60;4.35;;;;;;;6.85;75.24;100020.59;5073129;28;19923;-65
2022/02/24 01:04:43;;;;;;;12.93;4.35;;;;;;;6.84;75.29;100014.59;5073613;28;20569;-65
2022/02/24 01:07:27;;;;;;;11.55;4.68;;;;;;;6.84;75.63;100000.81;5072403;28;20047;-65
2022/02/24 01:10:11;;;;;;;9.02;5.05;;;;;;;6.84;75.51;99999.13;5072955;28;20052;-64
2022/02/24 01:12:54;;;;;;;14.63;4.53;;;;;;;6.84;75.27;100003.41;5072740;28;20052;-65
2022/02/24 01:15:42;;;;;;;12.07;4.95;;;;;;;6.85;75.46;100002.56;5073522;28;20099;-65
2022/02/24 01:18:29;;;;;;;11.20;4.18;;;;;;;6.85;75.24;100005.16;5072813;28;20542;-64
2022/02/24 01:21:13;;;;;;;11.57;4.45;;;;;;;6.85;74.96;100005.16;5072789;28;20051;-65
2022/02/24 01:23:57;;;;;;;8.80;3.90;;;;;;;6.84;75.58;99993.97;5073643;28;20086;-64
2022/02/24 01:26:41;;;;;;;10.15;3.92;;;;;;;6.84;75.46;99993.97;5072163;28;20047;-65
2022/02/24 01:29:27;;;;;;;9.00;4.30;;;;;;;6.85;75.37;99985.41;5072741;28;20060;-64
2022/02/24 01:32:11;;;;;;;7.57;3.90;;;;;;;6.84;75.65;99990.50;5072326;28;20055;-64
2022/02/24 01:34:59;;;;;;;6.35;3.60;;;;;;;6.85;75.53;99980.25;5072820;28;20131;-65
2022/02/24 01:37:45;;;;;;;14.02;5.05;;;;;;;6.85;75.50;99981.97;5072211;28;20131;-64
2022/02/24 01:40:29;;;;;;;10.90;3.72;;;;;;;6.85;75.37;99982.81;5072419;28;20102;-65
2022/02/24 01:43:13;;;;;;;11.93;4.93;;;;;;;6.84;75.26;99964.75;5072746;28;20043;-65
2022/02/24 01:45:57;;;;;;;8.65;4.25;;;;;;;6.84;75.30;99967.34;5072186;28;20122;-65
2022/02/24 01:48:41;;;;;;;11.48;4.10;;;;;;;6.84;75.44;99962.19;5072810;28;20059;-64
2022/02/24 01:51:25;;;;;;;8.77;3.60;;;;;;;6.84;75.82;99957.03;5072892;28;20039;-65
2022/02/24 01:54:09;;;;;;;12.32;3.47;;;;;;;6.84;75.67;99954.44;5073244;28;20047;-65
2022/02/24 01:56:54;;;;;;;8.15;4.82;;;;;;;6.83;75.46;99945.88;5073139;28;20411;-65
2022/02/24 01:59:41;;;;;;;9.50;3.70;;;;;;;6.84;75.25;99944.16;5072229;28;20121;-65
2022/02/24 02:02:25;;;;;;;6.70;3.30;;;;;;;6.83;75.25;99938.13;5071887;28;20059;-65
2022/02/24 02:05:09;;;;;;;10.45;4.65;;;;;;;6.83;75.51;99940.72;5072354;28;20051;-65
2022/02/24 02:07:55;;;;;;;10.20;3.67;;;;;;;6.84;75.30;99936.41;5073322;28;20051;-65
2022/02/24 02:10:39;;;;;;;8.40;4.18;;;;;;;6.84;75.60;99931.25;5072033;28;20045;-65
2022/02/24 02:13:23;;;;;;;11.25;3.95;;;;;;;6.83;75.67;99932.09;5072727;28;20056;-64
2022/02/24 02:16:07;;;;;;;7.05;3.58;;;;;;;6.82;75.57;99918.34;5071845;28;20039;-66
2022/02/24 02:18:51;;;;;;;11.73;4.15;;;;;;;6.83;75.28;99911.47;5072624;28;20487;-65
2022/02/24 02:21:37;;;;;;;10.50;3.88;;;;;;;6.82;75.30;99908.03;5072787;28;20121;-64
2022/02/24 02:24:23;;;;;;;12.98;3.90;;;;;;;6.82;75.46;99902.91;5072798;28;20462;-64
2022/02/24 02:27:09;;;;;;;9.45;3.75;;;;;;;6.83;75.14;99911.47;5071998;28;20054;-66
2022/02/24 02:29:55;;;;;;;9.45;4.28;;;;;;;6.82;75.41;99900.31;5075122;28;20052;-65
2022/02/24 02:32:40;;;;;;;10.07;3.85;;;;;;;6.84;75.39;99900.34;5075619;28;20051;-64
2022/02/24 02:35:27;;;;;;;7.95;4.22;;;;;;;6.83;75.21;99901.19;5075829;28;20047;-65
2022/02/24 02:38:12;;;;;;;10.77;3.92;;;;;;;6.84;75.43;99892.63;5076415;28;20078;-65
2022/02/24 02:40:56;;;;;;;14.20;4.10;;;;;;;6.83;75.59;99896.91;5075677;28;20163;-65
2022/02/24 02:43:40;;;;;;;9.77;4.72;;;;;;;6.84;75.43;99890.03;5074964;28;20162;-65
2022/02/24 02:46:27;;;;;;;13.25;4.13;;;;;;;6.82;75.37;99884.88;5076275;28;20128;-65
2022/02/24 02:49:11;;;;;;;8.50;3.72;;;;;;;6.83;75.39;99878.88;5075213;28;20221;-64
2022/02/24 02:51:55;;;;;;;9.57;4.10;;;;;;;6.83;75.15;99872.84;5075637;28;20174;-65
2022/02/24 02:54:39;;;;;;;12.77;5.53;;;;;;;6.82;75.24;99866.81;5076181;28;20048;-65
2022/02/24 02:57:23;;;;;;;9.07;3.92;;;;;;;6.82;75.47;99871.09;5075734;28;20486;-64
2022/02/24 03:00:12;;;;;;;6.78;4.60;;;;;;;6.84;75.21;99872.00;5074805;28;20426;-65
2022/02/24 03:02:56;;;;;;;9.70;3.78;;;;;;;6.82;75.19;99863.38;5074776;28;20071;-64
2022/02/24 03:05:40;;;;;;;12.30;4.43;;;;;;;6.83;75.11;99862.53;5075440;28;20052;-65
2022/02/24 03:08:24;;;;;;;11.90;4.60;;;;;;;6.82;75.08;99866.81;5074846;28;20051;-65
2022/02/24 03:11:08;;;;;;;;;;;;;;;6.82;74.89;99860.78;5075792;28;20051;-64
2022/02/24 03:13:52;;;;;;;14.15;3.88;;;;;;;6.82;75.46;99860.78;5075928;28;20436;-64
2022/02/24 03:16:36;;;;;;;10.45;4.10;;;;;;;6.82;75.50;99861.69;5075578;28;20056;-65
2022/02/24 03:19:20;;;;;;;12.23;4.40;;;;;;;6.81;75.37;99859.94;5075728;28;20093;-65
2022/02/24 03:22:10;;;;;;;9.73;3.55;;;;;;;6.82;75.26;99860.78;5075117;28;20510;-64
2022/02/24 03:24:54;;;;;;;10.95;4.40;;;;;;;6.82;75.17;99853.06;5075133;28;20052;-64
2022/02/24 03:27:38;;;;;;;10.05;5.10;;;;;;;6.82;75.03;99842.75;5075103;28;20052;-65
2022/02/24 03:30:23;;;;;;;11.95;4.00;;;;;;;6.83;75.14;99847.06;5074444;28;20051;-66
2022/02/24 03:33:07;;;;;;;8.13;3.67;;;;;;;6.83;75.11;99844.50;5074468;28;20047;-64
2022/02/24 03:35:51;;;;;;;7.97;3.70;;;;;;;6.84;75.09;99835.94;5074784;28;20051;-66
2022/02/24 03:38:35;;;;;;;14.00;3.78;;;;;;;6.82;75.46;99823.03;5074250;28;20506;-64
2022/02/24 03:41:19;;;;;;;11.00;4.35;;;;;;;6.82;75.57;99817.88;5074791;28;20114;-65
2022/02/24 03:44:03;;;;;;;6.45;3.10;;;;;;;6.82;75.09;99801.53;5074894;28;20067;-65
2022/02/24 03:46:47;;;;;;;;;;;;;;;6.81;75.05;99794.63;5074734;28;20102;-65
2022/02/24 03:49:35;;;;;;;11.32;4.35;;;;;;;6.81;75.14;99797.22;5074423;28;20110;-65
2022/02/24 03:52:20;;;;;;;9.80;3.47;;;;;;;6.81;75.09;99798.09;5073651;28;20059;-64
2022/02/24 03:55:04;;;;;;;12.80;4.13;;;;;;;6.82;75.45;99788.66;5073414;28;20047;-65
2022/02/24 03:57:49;;;;;;;12.25;3.60;;;;;;;6.81;75.62;99795.53;5074916;28;20135;-65
2022/02/24 04:00:33;;;;;;;6.72;3.40;;;;;;;6.80;75.18;99795.47;5073644;28;20043;-65
2022/02/24 04:03:19;;;;;;;14.02;3.72;;;;;;;6.81;75.55;99794.63;5074397;28;20051;-64
2022/02/24 04:06:06;;;;;;;11.73;4.10;;;;;;;6.81;75.22;99781.75;5074900;28;20060;-65
2022/02/24 04:08:50;;;;;;;8.65;3.70;;;;;;;6.80;75.39;99785.16;5073368;28;20070;-64
2022/02/24 04:11:34;;;;;;;11.45;3.78;;;;;;;6.80;75.17;99787.75;5074479;28;20145;-65
2022/02/24 04:14:18;;;;;;;7.22;3.22;;;;;;;6.80;75.06;99785.16;5074394;28;20059;-65
2022/02/24 04:17:02;;;;;;;11.63;4.30;;;;;;;6.79;75.12;99774.00;5074601;28;20168;-65
2022/02/24 04:19:46;;;;;;;;;;;;;;;6.79;74.73;99786.88;5073727;28;20078;-65
2022/02/24 04:22:30;;;;;;;8.63;4.00;;;;;;;6.79;75.00;99783.41;5073920;28;19966;-65
2022/02/24 04:25:15;;;;;;;7.55;4.30;;;;;;;6.79;75.24;99770.53;5074135;28;20051;-64
2022/02/24 04:27:59;;;;;;;7.60;3.00;;;;;;;6.78;74.92;99774.81;5073053;28;20052;-64
2022/02/24 04:30:43;;;;;;;11.52;3.70;;;;;;;6.78;75.09;99761.94;5074152;28;20124;-65
2022/02/24 04:33:31;;;;;;;16.90;3.72;;;;;;;6.79;75.03;99762.81;5074263;28;20051;-65
2022/02/24 04:36:16;;;;;;;5.63;3.45;;;;;;;6.79;74.99;99758.53;5073316;28;20051;-65
2022/02/24 04:39:00;;;;;;;;;;;;;;;6.78;74.80;99753.34;5073927;28;20163;-65
2022/02/24 04:41:44;;;;;;;8.20;4.07;;;;;;;6.77;75.03;99749.91;5073129;28;19930;-65
2022/02/24 04:44:28;;;;;;;14.93;3.30;;;;;;;6.76;75.19;99750.72;5073808;28;20399;-65
2022/02/24 04:47:12;;;;;;;7.05;3.13;;;;;;;6.77;75.37;99749.03;5074143;28;20411;-65
2022/02/24 04:49:56;;;;;;;6.78;3.15;;;;;;;6.76;75.17;99747.28;5073731;28;20132;-65
2022/02/24 04:52:41;;;;;;;9.57;4.55;;;;;;;6.78;75.02;99745.59;5073230;28;20403;-65
2022/02/24 04:55:27;;;;;;;6.57;3.22;;;;;;;6.77;75.37;99749.91;5072501;28;20458;-64
2022/02/24 04:58:12;;;;;;;7.45;3.28;;;;;;;6.77;75.03;99738.75;5073377;28;20051;-65
2022/02/24 05:00:59;;;;;;;;;;;;;;;6.75;75.09;99732.66;5073528;28;20419;-65
2022/02/24 05:03:43;;;;;;;5.13;2.95;;;;;;;6.73;75.31;99732.59;5072476;28;19965;-64
2022/02/24 05:06:29;;;;;;;14.75;4.25;;;;;;;6.73;74.92;99734.34;5073670;28;20102;-64
2022/02/24 05:09:16;;;;;;;12.35;3.83;;;;;;;6.73;75.00;99730.03;5073211;28;20067;-64
2022/02/24 05:12:00;;;;;;;14.20;4.15;;;;;;;6.73;74.96;99726.59;5072799;28;20097;-65
2022/02/24 05:14:44;;;;;;;11.40;4.15;;;;;;;6.73;75.00;99721.44;5073432;28;20051;-65
2022/02/24 05:17:32;;;;;;;12.45;4.10;;;;;;;6.70;74.86;99715.38;5073150;28;20055;-64
2022/02/24 05:20:17;;;;;;;10.73;3.03;;;;;;;6.72;75.02;99714.56;5073077;28;20121;-65
2022/02/24 05:23:03;;;;;;;;;;;;;;;6.70;74.72;99707.66;5073502;28;20121;-65
2022/02/24 05:25:47;;;;;;;8.07;3.50;;;;;;;6.68;74.94;99704.16;5073334;28;19923;-65
2022/02/24 05:28:31;;;;;;;10.98;4.18;;;;;;;6.69;74.87;99703.34;5073037;28;20415;-64
2022/02/24 05:31:17;;;;;;;6.97;3.63;;;;;;;6.67;74.87;99697.28;5073194;28;20054;-64
2022/02/24 05:34:01;;;;;;;8.13;3.80;;;;;;;6.67;74.91;99686.09;5072636;28;20082;-65
2022/02/24 05:36:46;;;;;;;;;;;;;;;6.65;74.58;99691.19;5072733;28;20051;-64
2022/02/24 05:39:30;;;;;;;8.23;4.28;;;;;;;6.65;74.52;99677.47;5072968;28;19923;-65
2022/02/24 05:42:16;;;;;;;15.63;4.00;;;;;;;6.65;74.88;99677.47;5073202;28;20039;-64
2022/02/24 05:45:03;;;;;;;12.05;4.18;;;;;;;6.65;75.03;99678.31;5072889;28;20055;-65
2022/02/24 05:47:49;;;;;;;10.60;4.40;;;;;;;6.65;74.74;99670.59;5072903;28;20047;-65
2022/02/24 05:50:33;;;;;;;9.43;3.78;;;;;;;6.66;74.75;99664.63;5072070;28;20052;-66
2022/02/24 05:53:17;;;;;;;8.27;3.30;;;;;;;6.65;74.68;99657.72;5073261;28;20419;-65
2022/02/24 05:56:01;;;;;;;19.08;4.15;;;;;;;6.65;74.51;99656.88;5073342;28;20098;-65
2022/02/24 05:58:45;;;;;;;15.73;4.63;;;;;;;6.63;74.70;99654.22;5073231;28;20522;-66
2022/02/24 06:01:29;;;;;;;14.60;4.72;;;;;;;6.64;74.43;99655.13;5072716;28;20039;-64
2022/02/24 06:04:13;;;;;;;13.70;4.25;;;;;;;6.63;74.85;99649.09;5075337;28;20060;-65
2022/02/24 06:06:57;;;;;;;10.25;3.58;;;;;;;6.63;74.80;99641.34;5076199;28;20059;-64
2022/02/24 06:09:41;;;;;;;10.27;3.13;;;;;;;6.64;74.75;99635.38;5076722;28;20098;-65
2022/02/24 06:12:24;;;;;;;6.20;3.45;;;;;;;6.64;74.59;99635.38;5077034;28;20074;-64
2022/02/24 06:15:10;;;;;;;10.70;4.07;;;;;;;6.65;74.63;99636.25;5076238;28;20483;-65
2022/02/24 06:17:54;;;;;;;7.57;3.80;;;;;;;6.65;74.87;99638.84;5075943;28;20116;-64
2022/02/24 06:20:39;;;;;;;11.70;4.40;;;;;;;6.64;74.70;99635.38;5076046;28;20048;-65
2022/02/24 06:23:23;;;;;;;12.05;3.42;;;;;;;6.64;75.00;99639.66;5076820;28;20051;-64
2022/02/24 06:26:07;;;;;;;15.77;4.43;;;;;;;6.65;74.91;99633.69;5075888;28;20177;-65
2022/02/24 06:28:51;;;;;;;17.05;5.00;;;;;;;6.66;74.84;99632.88;5076343;28;20059;-65
2022/02/24 06:31:37;;;;;;;9.45;3.70;;;;;;;6.66;75.00;99638.00;5076163;28;20120;-65
2022/02/24 06:34:21;;;;;;;11.20;3.53;;;;;;;6.67;74.58;99632.88;5075084;28;20526;-64
2022/02/24 06:37:05;;;;;;;10.15;3.85;;;;;;;6.65;74.34;99631.97;5075311;28;20105;-64
2022/02/24 06:39:49;;;;;;;13.45;4.40;;;;;;;6.66;74.73;99630.28;5075105;28;20050;-65
2022/02/24 06:42:33;;;;;;;10.10;4.30;;;;;;;6.67;74.70;99626.88;5076516;28;20035;-65
2022/02/24 06:45:17;;;;;;;8.52;3.42;;;;;;;6.67;74.84;99620.00;5076105;28;20052;-65
2022/02/24 06:48:06;;;;;;;13.00;4.07;;;;;;;6.66;74.77;99615.69;5076045;28;20060;-65
2022/02/24 06:50:51;;;;;;;14.25;4.32;;;;;;;6.66;74.31;99617.41;5075298;28;20071;-65
2022/02/24 06:53:34;;;;;;;;;;;;;;;6.66;74.54;99614.84;5075505;28;20090;-64
2022/02/24 06:56:19;;;;;;;13.93;3.85;;;;;;;6.64;74.82;99609.63;5074974;28;19939;-64
2022/02/24 06:59:03;;;;;;;9.07;4.00;;;;;;;6.65;74.59;99607.94;5075713;28;20101;-65
2022/02/24 07:01:47;;;;;;;12.75;4.03;;;;;;;6.66;75.02;99607.09;5074753;28;20060;-64
2022/02/24 07:04:35;;;;;;;10.13;4.10;;;;;;;6.65;74.53;99608.78;5074736;28;20067;-65
2022/02/24 07:07:21;;;;;;;9.88;3.95;;;;;;;6.67;74.83;99606.28;5074474;28;20047;-65
2022/02/24 07:10:08;;;;;;;13.10;4.75;;;;;;;6.68;74.79;99605.44;5075564;28;20128;-65
2022/02/24 07:12:55;;;;;;;12.52;4.30;;;;;;;6.66;74.78;99594.22;5075661;28;20094;-64
2022/02/24 07:15:39;;;;;;;9.48;4.05;;;;;;;6.66;74.56;99597.66;5074515;28;20161;-65
2022/02/24 07:18:23;;;;;;;9.32;3.72;;;;;;;6.66;74.56;99589.94;5075912;28;20098;-65
2022/02/24 07:21:09;;;;;;;7.82;4.05;;;;;;;6.67;74.54;99590.81;5075428;28;20098;-64
2022/02/24 07:23:53;;;;;;;9.57;3.40;;;;;;;6.67;74.41;99589.09;5074212;28;20086;-64
2022/02/24 07:26:37;;;;;;;12.30;4.50;;;;;;;6.67;74.95;99589.09;5074529;28;20051;-64
2022/02/24 07:29:21;;;;;;;13.25;3.97;;;;;;;6.65;74.96;99580.47;5075442;28;20420;-64
2022/02/24 07:32:05;;;;;;;12.82;4.93;;;;;;;6.66;74.64;99584.78;5075588;28;20106;-65
2022/02/24 07:34:49;;;;;;;;;;;;;;;6.65;74.36;99580.47;5074848;28;20082;-64
2022/02/24 07:37:33;;;;;;;8.57;4.45;;;;;;;6.66;74.64;99571.91;5074694;28;19946;-65
2022/02/24 07:40:17;;;;;;;13.68;4.70;;;;;;;6.66;75.00;99579.63;5074033;28;20573;-64
2022/02/24 07:43:01;;;;;;;;;;;;;;;6.66;74.55;99568.47;5075428;28;20035;-65
2022/02/24 07:45:45;;;;;;;10.30;3.40;;;;;;;6.66;74.75;99558.19;5074966;28;19923;-65
2022/02/24 07:48:29;;;;;;;7.80;4.13;;;;;;;6.65;74.51;99554.72;5073880;28;20070;-64
2022/02/24 07:51:14;;;;;;;8.98;4.28;;;;;;;6.67;74.82;99553.06;5074657;28;20048;-64
2022/02/24 07:53:59;;;;;;;11.85;3.55;;;;;;;6.68;75.16;99549.63;5074008;28;20079;-64
2022/02/24 07:56:43;;;;;;;12.73;4.10;;;;;;;6.67;74.68;99541.91;5074416;28;20584;-65
2022/02/24 07:59:27;;;;;;;9.23;3.83;;;;;;;6.68;75.16;99536.75;5073965;28;20059;-65
2022/02/24 08:02:11;;;;;;;10.25;4.30;;;;;;;6.68;74.75;99544.50;5073529;28;20470;-65
2022/02/24 08:04:56;;;;;;;;;;;;;;;6.68;75.06;99533.34;5075131;28;20510;-65
2022/02/24 08:07:40;;;;;;;12.20;3.88;;;;;;;6.66;75.07;99535.00;5074638;28;19923;-65
2022/02/24 08:10:23;;;;;;;15.15;4.32;;;;;;;6.67;75.18;99531.59;5074531;28;20047;-65
2022/02/24 08:13:07;;;;;;;8.35;4.00;;;;;;;6.68;74.89;99538.50;5074675;28;20514;-65
2022/02/24 08:15:51;;;;;;;10.68;4.03;;;;;;;6.69;74.92;99532.50;5074731;28;20553;-65
2022/02/24 08:18:38;;;;;;;9.52;3.67;;;;;;;6.70;75.15;99542.81;5074723;28;20101;-65
2022/02/24 08:21:23;;;;;;;11.35;4.38;;;;;;;6.71;74.83;99541.09;5073551;28;20074;-65
2022/02/24 08:24:10;;;;;;;9.52;4.32;;;;;;;6.70;74.89;99529.94;5074550;28;20059;-65
2022/02/24 08:26:55;;;;;;;12.23;4.78;;;;;;;6.71;75.28;99528.22;5073372;28;20043;-65
2022/02/24 08:29:41;;;;;;;18.08;4.97;;;;;;;6.71;75.22;99530.81;5073090;28;20047;-64
2022/02/24 08:32:26;;;;;;;14.40;4.40;;;;;;;6.73;75.34;99530.88;5073901;28;20048;-65
2022/02/24 08:35:10;;;;;;;;;;;;;;;6.73;75.25;99521.41;5074459;28;20093;-65
2022/02/24 08:37:55;;;;;;;11.43;4.85;;;;;;;6.73;75.11;99520.56;5072966;28;19957;-65
2022/02/24 08:40:39;;;;;;;11.90;4.55;;;;;;;6.75;75.52;99513.75;5073117;28;20063;-64
2022/02/24 08:43:23;;;;;;;;;;;;;;;6.73;74.82;99510.25;5075095;28;20089;-66
2022/02/24 08:46:09;;;;;;;11.10;4.57;;;;;;;6.73;75.18;99513.69;5073053;28;19989;-65
2022/02/24 08:48:57;;;;;;;10.20;3.97;;;;;;;6.75;74.98;99511.16;5073819;28;20063;-65
2022/02/24 08:51:43;;;;;;;12.57;4.22;;;;;;;6.74;75.10;99502.56;5074099;28;20094;-65
2022/02/24 08:54:27;;;;;;;14.90;4.97;;;;;;;6.76;75.15;99500.88;5072945;28;20048;-65
2022/02/24 08:57:11;;;;;;;10.95;4.35;;;;;;;6.77;75.42;99507.78;5073207;28;20052;-64
2022/02/24 08:59:55;;;;;;;19.08;4.70;;;;;;;6.79;75.03;99489.78;5074006;28;20063;-65
2022/02/24 09:02:39;;;;;;;13.20;4.60;;;;;;;6.79;75.15;99485.50;5073610;28;20139;-65
2022/02/24 09:05:24;;;;;;;14.10;4.95;;;;;;;6.81;75.51;99477.81;5073613;28;20079;-65
2022/02/24 09:08:10;;;;;;;13.43;5.85;;;;;;;6.83;74.90;99473.56;5072438;28;20478;-65
2022/02/24 09:10:55;;;;;;;14.68;4.30;;;;;;;6.85;75.28;99453.84;5073841;28;20102;-65
2022/02/24 09:13:43;;;;;;;11.57;4.72;;;;;;;6.85;75.12;99444.41;5072505;28;20044;-65
2022/02/24 09:16:29;;;;;;;10.02;4.07;;;;;;;6.90;75.13;99448.81;5072327;28;20071;-65
2022/02/24 09:19:16;;;;;;;10.40;4.30;;;;;;;6.94;75.45;99448.88;5073031;28;20102;-65
2022/02/24 09:22:00;;;;;;;14.65;4.75;;;;;;;6.99;75.10;99439.56;5073271;28;20079;-65
2022/02/24 09:24:44;;;;;;;11.82;5.47;;;;;;;7.02;75.21;99428.44;5073104;28;20051;-65
2022/02/24 09:27:28;;;;;;;15.30;5.20;;;;;;;7.05;75.21;99425.94;5072951;28;20129;-64
2022/02/24 09:30:14;;;;;;;12.52;6.68;;;;;;;7.09;75.10;99408.81;5073166;28;20531;-64
2022/02/24 09:32:59;;;;;;;9.63;4.97;;;;;;;7.14;75.33;99402.06;5072381;28;20097;-64
2022/02/24 09:35:43;;;;;;;;;;;;;;;7.17;75.26;99407.28;5073706;28;20047;-65
2022/02/24 09:38:27;;;;;;;13.45;5.45;;;;;;;7.19;75.04;99404.72;5075552;28;19969;-64
2022/02/24 09:41:11;;;;;;;11.48;4.32;;;;;;;7.22;75.05;99402.19;5076307;28;20594;-64
2022/02/24 09:43:55;;;;;;;11.05;4.72;;;;;;;7.26;74.96;99396.28;5077627;28;20471;-65
2022/02/24 09:46:42;;;;;;;11.63;4.80;;;;;;;7.28;75.29;99398.03;5076530;28;20617;-64
2022/02/24 09:49:29;;;;;;;12.55;5.50;;;;;;;7.30;75.04;99380.88;5077284;28;20048;-65
2022/02/24 09:52:13;;;;;;;12.50;5.45;;;;;;;7.33;75.08;99380.06;5077202;28;20557;-64
2022/02/24 09:54:57;;;;;;;;;;;;;;;7.31;74.79;99369.75;5077612;28;20055;-65
2022/02/24 09:57:41;;;;;;;9.68;3.95;;;;;;;7.34;75.05;99378.38;5077179;28;20321;-65
2022/02/24 10:00:25;;;;;;;11.75;4.80;;;;;;;7.34;74.88;99386.09;5076910;28;20047;-65
2022/02/24 10:03:31;;;;;;;5.03;3.65;;;;;;;7.34;74.95;99378.38;5077003;28;20062;-66
2022/02/24 10:06:16;;;;;;;17.08;4.35;;;;;;;7.40;74.64;99370.72;5075909;28;20411;-68
2022/02/24 10:09:00;;;;;;;8.60;4.10;;;;;;;7.48;74.81;99376.91;5076124;28;20462;-70
2022/02/24 10:11:47;;;;;;;11.02;4.25;;;;;;;7.52;74.79;99370.97;5076372;28;20055;-69
2022/02/24 10:14:33;;;;;;;18.67;5.07;;;;;;;7.54;74.47;99368.41;5077058;28;20067;-71
2022/02/24 10:17:17;;;;;;;14.68;5.05;;;;;;;7.53;74.15;99384.72;5075512;28;20047;-70
2022/02/24 10:20:11;;;;;;;12.25;4.78;;;;;;;7.52;74.19;99390.72;5076001;28;20101;-65
2022/02/24 10:22:56;;;;;;;11.13;4.05;;;;;;;7.48;74.64;99361.44;5075633;28;20098;-64
2022/02/24 10:25:45;;;;;;;19.85;4.53;;;;;;;7.50;73.74;99367.50;5075795;28;20123;-72
2022/02/24 10:28:38;;;;;;;10.23;4.35;;;;;;;7.49;74.16;99358.03;5075646;28;20114;-70
2022/02/24 10:31:25;;;;;;;11.70;3.85;;;;;;;7.51;74.07;99366.66;5076063;28;20118;-71
2022/02/24 10:34:11;;;;;;;8.98;4.18;;;;;;;7.48;74.02;99345.97;5075162;28;20450;-71
2022/02/24 10:36:55;;;;;;;14.18;4.68;;;;;;;7.47;74.05;99350.25;5075697;28;20044;-72
2022/02/24 10:39:39;;;;;;;16.90;4.82;;;;;;;7.50;74.10;99338.25;5076544;28;20098;-72
2022/02/24 10:42:25;;;;;;;;;;;;;;;7.53;73.77;99333.16;5076098;28;20047;-72
2022/02/24 10:45:16;;;;;;;7.53;3.55;;;;;;;7.58;73.69;99331.53;5074990;28;20027;-73
2022/02/24 10:48:03;;;;;;;9.88;4.38;;;;;;;7.69;73.80;99331.72;5076326;28;20120;-72
2022/02/24 10:50:57;;;;;;;20.17;3.83;;;;;;;7.71;73.61;99330.00;5074366;28;20439;-73
2022/02/24 10:53:44;;;;;;;7.70;3.85;;;;;;;7.72;73.82;99317.16;5074804;28;20047;-72
2022/02/24 10:56:32;;;;;;;9.57;3.22;;;;;;;7.71;73.67;99307.66;5075981;28;20572;-73
2022/02/24 10:59:30;;;;;;;6.45;3.08;;;;;;;7.65;73.01;99319.59;5075695;28;20079;-73
2022/02/24 11:02:14;;;;;;;11.85;3.85;;;;;;;7.61;73.13;99301.50;5075728;28;20148;-74
2022/02/24 11:04:59;;;;;;;6.28;2.80;;;;;;;7.56;72.00;99289.38;5074964;28;20102;-76
2022/02/24 11:07:42;;;;;;;5.90;2.70;;;;;;;7.62;72.87;99284.31;5075775;28;20083;-74
2022/02/24 11:10:29;;;;;;;9.25;2.72;;;;;;;7.63;72.18;99280.88;5075844;28;20137;-77
2022/02/24 11:13:14;;;;;;;12.18;3.65;;;;;;;7.65;73.40;99298.97;5074627;28;20051;-65
2022/02/24 11:15:59;;;;;;;7.53;3.08;;;;;;;7.64;73.37;99289.50;5075903;28;20043;-65
2022/02/24 11:18:45;;;;;;;6.55;2.90;;;;;;;7.62;73.43;99295.50;5075379;28;20131;-65
2022/02/24 11:21:30;;;;;;;9.00;3.63;;;;;;;7.60;73.43;99288.59;5074546;28;20514;-66
2022/02/24 11:24:14;;;;;;;6.57;2.85;;;;;;;7.58;73.76;99273.06;5074954;28;20094;-65
2022/02/24 11:27:22;;;;;;;6.43;3.35;;;;;;;7.56;73.41;99274.75;5075336;28;20098;-66
2022/02/24 11:30:18;;;;;;;8.52;2.80;;;;;;;7.55;73.86;99273.00;5074890;28;20089;-66
2022/02/24 11:33:01;;;;;;;10.63;3.60;;;;;;;7.55;73.85;99267.84;5074081;28;20416;-65
2022/02/24 11:36:05;;;;;;;5.05;2.90;;;;;;;7.53;74.00;99259.25;5074396;28;20420;-66
2022/02/24 11:39:15;;;;;;;7.40;2.97;;;;;;;7.54;73.60;99261.00;5075233;28;20048;-65
2022/02/24 11:42:01;;;;;;;9.50;2.90;;;;;;;7.53;73.47;99264.41;5074044;28;20051;-65
2022/02/24 11:44:45;;;;;;;9.02;3.58;;;;;;;7.52;73.49;99254.94;5073981;28;20158;-65
2022/02/24 11:47:56;;;;;;;5.35;2.65;;;;;;;7.51;73.92;99255.78;5073871;28;20055;-65
2022/02/24 11:50:44;;;;;;;7.22;2.95;;;;;;;7.50;73.60;99255.75;5074328;28;20442;-65
2022/02/24 11:53:43;;;;;;;9.93;2.67;;;;;;;7.49;73.65;99261.72;5073987;28;20403;-66
2022/02/24 11:56:30;;;;;;;9.10;3.38;;;;;;;7.49;73.79;99254.88;5073838;28;20050;-65
2022/02/24 11:59:27;;;;;;;6.00;2.28;;;;;;;7.49;73.58;99257.47;5073791;28;20051;-66
2022/02/24 12:02:11;;;;;;;5.50;2.65;;;;;;;7.47;73.65;99249.69;5072841;28;20063;-66
2022/02/24 12:04:56;;;;;;;10.95;3.80;;;;;;;7.47;74.26;99247.09;5074483;28;20106;-65
2022/02/24 12:08:00;;;;;;;13.52;3.85;;;;;;;7.48;73.77;99235.09;5074226;28;20048;-65
2022/02/24 12:10:47;;;;;;;5.38;3.05;;;;;;;7.48;73.68;99242.84;5074113;28;20442;-65
2022/02/24 12:13:31;;;;;;;7.80;3.10;;;;;;;7.45;73.96;99238.50;5073850;28;20181;-66
2022/02/24 12:16:20;;;;;;;7.38;3.10;;;;;;;7.47;73.61;99234.22;5074568;28;20051;-66
2022/02/24 12:19:04;;;;;;;11.15;3.65;;;;;;;7.49;73.80;99230.78;5073407;28;20044;-65
2022/02/24 12:22:19;;;;;;;7.88;3.40;;;;;;;7.50;73.68;99217.94;5073975;28;20075;-66
2022/02/24 12:25:23;;;;;;;6.40;3.00;;;;;;;7.53;73.76;99199.94;5073096;28;20044;-65
2022/02/24 12:28:08;;;;;;;5.70;3.08;;;;;;;7.56;73.45;99188.81;5073572;28;20051;-65
2022/02/24 12:30:54;;;;;;;12.25;3.33;;;;;;;7.59;73.70;99189.69;5072953;28;20043;-65
2022/02/24 12:33:38;;;;;;;4.53;2.35;;;;;;;7.60;73.45;99180.28;5074105;28;20052;-65
2022/02/24 12:36:22;;;;;;;7.20;2.95;;;;;;;7.63;73.53;99172.56;5074168;28;20117;-66
2022/02/24 12:39:07;;;;;;;5.97;3.00;;;;;;;7.65;73.60;99162.28;5074342;28;20091;-65
2022/02/24 12:41:54;;;;;;;8.05;3.28;;;;;;;7.67;73.33;99160.59;5074286;28;20050;-66
2022/02/24 12:44:39;;;;;;;5.03;2.88;;;;;;;7.67;73.49;99142.53;5073440;28;20039;-67
2022/02/24 12:47:25;;;;;;;9.18;3.65;;;;;;;7.70;73.53;99140.00;5074135;28;20545;-66
2022/02/24 12:50:09;;;;;;;4.68;2.95;;;;;;;7.71;73.51;99131.38;5073769;28;20117;-67
2022/02/24 12:53:09;;;;;;;7.15;2.33;;;;;;;7.73;73.32;99128.00;5072987;28;20548;-67
2022/02/24 12:55:55;;;;;;;5.30;2.95;;;;;;;7.76;73.33;99101.38;5072938;28;20070;-66
2022/02/24 12:58:44;;;;;;;7.00;2.70;;;;;;;7.78;73.63;99094.53;5073198;28;20087;-65
2022/02/24 13:01:28;;;;;;;10.32;3.17;;;;;;;7.81;73.32;99104.88;5073330;28;20039;-65
2022/02/24 13:04:15;;;;;;;6.38;2.80;;;;;;;7.82;73.58;99101.47;5072439;28;20462;-66
2022/02/24 13:07:00;;;;;;;6.93;3.00;;;;;;;7.85;73.44;99110.94;5073242;28;20047;-65
2022/02/24 13:09:45;;;;;;;5.47;3.22;;;;;;;7.86;73.51;99097.19;5073275;28;20047;-65